createdAt,value
2022-08-20T00:01:05.956Z,92.80
2022-08-20T00:03:44.779Z,92.80
2022-08-20T00:06:23.593Z,92.80
2022-08-20T00:08:51.008Z,92.90
2022-08-20T00:11:22.003Z,93.00
2022-08-20T00:13:55.799Z,93.00
2022-08-20T00:16:24.678Z,93.00
2022-08-20T00:18:51.640Z,93.10
2022-08-20T00:21:21.210Z,93.20
2022-08-20T00:23:52.161Z,93.30
2022-08-20T00:26:20.098Z,93.40
2022-08-20T00:28:47.216Z,93.40
2022-08-20T00:31:17.920Z,93.70
2022-08-20T00:33:44.889Z,93.70
2022-08-20T00:36:12.432Z,93.80
2022-08-20T00:38:42.073Z,93.80
2022-08-20T00:41:12.606Z,93.90
2022-08-20T00:44:19.271Z,94.00
2022-08-20T00:46:46.707Z,94.00
2022-08-20T00:49:19.870Z,94.00
2022-08-20T00:52:05.399Z,94.00
2022-08-20T00:54:43.402Z,94.00
2022-08-20T00:57:29.909Z,93.90
2022-08-20T01:00:25.760Z,93.90
2022-08-20T01:02:53.673Z,93.80
2022-08-20T01:05:29.439Z,94.00
2022-08-20T01:07:58.200Z,94.00
2022-08-20T01:10:35.314Z,94.00
2022-08-20T01:13:10.080Z,94.00
2022-08-20T01:15:42.987Z,94.00
2022-08-20T01:18:13.823Z,93.80
2022-08-20T01:20:46.580Z,93.50
2022-08-20T01:24:03.970Z,93.40
2022-08-20T01:26:37.840Z,93.30
2022-08-20T01:29:11.745Z,93.40
2022-08-20T01:31:40.560Z,93.30
2022-08-20T01:34:11.214Z,93.40
2022-08-20T01:36:45.567Z,93.40
2022-08-20T01:39:16.813Z,93.40
2022-08-20T01:41:49.677Z,93.40
2022-08-20T01:44:18.538Z,93.40
2022-08-20T01:46:48.083Z,93.40
2022-08-20T01:49:25.207Z,93.50
2022-08-20T01:51:54.265Z,93.50
2022-08-20T01:54:22.375Z,93.50
2022-08-20T01:57:17.175Z,93.50
2022-08-20T01:59:44.685Z,93.40
2022-08-20T02:02:12.858Z,93.20
2022-08-20T02:04:41.720Z,93.20
2022-08-20T02:07:14.696Z,93.10
2022-08-20T02:09:41.924Z,93.00
2022-08-20T02:12:10.775Z,92.80
2022-08-20T02:14:43.575Z,92.70
2022-08-20T02:17:11.091Z,92.60
2022-08-20T02:19:49.047Z,92.60
2022-08-20T02:22:22.114Z,92.60
2022-08-20T02:24:49.308Z,92.60
2022-08-20T02:27:16.226Z,92.60
2022-08-20T02:29:43.245Z,92.60
2022-08-20T02:32:24.163Z,92.60
2022-08-20T02:34:57.024Z,92.60
2022-08-20T02:37:23.856Z,92.60
2022-08-20T02:39:50.752Z,92.60
2022-08-20T02:42:18.160Z,92.70
2022-08-20T02:44:45.002Z,92.80
2022-08-20T02:47:11.815Z,92.80
2022-08-20T02:49:38.716Z,92.80
2022-08-20T02:52:05.562Z,92.80
2022-08-20T02:54:32.446Z,92.90
2022-08-20T02:56:59.349Z,92.90
2022-08-20T02:59:26.228Z,92.90
2022-08-20T03:01:59.685Z,93.00
2022-08-20T03:04:30.427Z,93.00
2022-08-20T03:06:58.333Z,93.10
2022-08-20T03:09:25.341Z,93.10
2022-08-20T03:11:52.906Z,93.10
2022-08-20T03:14:20.009Z,93.10
2022-08-20T03:16:46.821Z,93.10
2022-08-20T03:19:13.934Z,93.10
2022-08-20T03:21:40.942Z,93.10
2022-08-20T03:24:07.967Z,93.10
2022-08-20T03:26:34.861Z,93.10
2022-08-20T03:29:02.273Z,93.10
2022-08-20T03:31:29.720Z,93.10
2022-08-20T03:33:56.617Z,93.20
2022-08-20T03:36:28.863Z,93.10
2022-08-20T03:39:00.992Z,93.10
2022-08-20T03:41:29.096Z,93.10
2022-08-20T03:43:56.178Z,93.10
2022-08-20T03:46:23.943Z,93.20
2022-08-20T03:48:56.607Z,93.20
2022-08-20T03:51:31.089Z,93.20
2022-08-20T03:53:58.965Z,93.20
2022-08-20T03:56:26.680Z,93.20
2022-08-20T03:58:53.636Z,93.20
2022-08-20T04:01:45.227Z,93.30
2022-08-20T04:04:12.475Z,93.30
2022-08-20T04:06:40.096Z,93.30
2022-08-20T04:09:09.694Z,93.40
2022-08-20T04:11:40.058Z,93.40
2022-08-20T04:14:07.017Z,93.40
2022-08-20T04:16:34.381Z,93.50
2022-08-20T04:19:03.612Z,93.50
2022-08-20T04:21:32.938Z,93.40
2022-08-20T04:24:01.371Z,93.10
2022-08-20T04:26:28.432Z,93.10
2022-08-20T04:28:55.693Z,93.10
2022-08-20T04:31:33.797Z,93.10
2022-08-20T04:34:08.024Z,93.10
2022-08-20T04:36:37.565Z,93.10
2022-08-20T04:39:04.516Z,93.20
2022-08-20T04:41:31.388Z,93.10
2022-08-20T04:43:58.350Z,93.10
2022-08-20T04:46:28.606Z,93.00
2022-08-20T04:48:56.747Z,93.10
2022-08-20T04:51:24.442Z,93.40
2022-08-20T04:53:53.919Z,93.50
2022-08-20T04:56:39.166Z,93.60
2022-08-20T04:59:07.350Z,94.50
2022-08-20T05:01:34.606Z,94.90
2022-08-20T05:04:01.588Z,95.70
2022-08-20T05:06:31.400Z,96.20
2022-08-20T05:09:00.288Z,96.50
2022-08-20T05:11:35.507Z,96.90
2022-08-20T05:14:11.137Z,97.20
2022-08-20T05:16:40.652Z,97.50
2022-08-20T05:19:10.786Z,98.00
2022-08-20T05:21:38.972Z,98.70
2022-08-20T05:24:06.587Z,99.00
2022-08-20T05:26:33.796Z,99.30
2022-08-20T05:29:00.600Z,99.90
2022-08-20T05:31:31.529Z,99.90
2022-08-20T05:34:10.441Z,99.90
2022-08-20T05:36:43.131Z,98.80
2022-08-20T05:39:11.240Z,99.00
2022-08-20T05:41:39.009Z,99.20
2022-08-20T05:44:10.951Z,99.50
2022-08-20T05:46:41.693Z,98.00
2022-08-20T05:49:10.581Z,98.80
2022-08-20T05:51:37.552Z,98.70
2022-08-20T05:54:06.013Z,99.50
2022-08-20T05:56:33.976Z,99.30
2022-08-20T05:59:05.004Z,99.10
2022-08-20T06:01:33.474Z,99.20
2022-08-20T06:04:19.318Z,98.90
2022-08-20T06:06:47.289Z,98.70
2022-08-20T06:09:28.002Z,98.10
2022-08-20T06:12:06.182Z,98.50
2022-08-20T06:14:33.697Z,98.90
2022-08-20T06:17:13.294Z,99.30
2022-08-20T06:19:43.608Z,99.40
2022-08-20T06:22:19.242Z,99.40
2022-08-20T06:24:50.135Z,98.20
2022-08-20T06:27:17.864Z,98.20
2022-08-20T06:29:45.056Z,98.20
2022-08-20T06:32:11.897Z,97.50
2022-08-20T06:34:49.992Z,96.20
2022-08-20T06:37:30.008Z,95.60
2022-08-20T06:40:09.457Z,95.70
2022-08-20T06:42:36.441Z,95.50
2022-08-20T06:45:05.763Z,94.30
2022-08-20T06:47:33.464Z,94.10
2022-08-20T06:50:00.477Z,94.40
2022-08-20T06:52:51.783Z,93.70
2022-08-20T06:55:16.233Z,93.90
2022-08-20T06:57:43.591Z,94.50
2022-08-20T07:00:15.578Z,94.90
2022-08-20T07:02:43.155Z,94.00
2022-08-20T07:05:10.790Z,93.90
2022-08-20T07:07:38.158Z,93.20
2022-08-20T07:10:11.144Z,92.90
2022-08-20T07:12:38.484Z,93.60
2022-08-20T07:15:07.842Z,93.80
2022-08-20T07:17:34.933Z,93.80
2022-08-20T07:20:14.288Z,92.80
2022-08-20T07:22:42.336Z,92.20
2022-08-20T07:25:12.623Z,91.70
2022-08-20T07:27:40.236Z,91.90
2022-08-20T07:30:31.334Z,91.30
2022-08-20T07:32:58.674Z,91.10
2022-08-20T07:35:27.353Z,91.00
2022-08-20T07:37:57.405Z,91.10
2022-08-20T07:40:30.921Z,90.40
2022-08-20T07:43:00.937Z,90.40
2022-08-20T07:45:28.483Z,90.60
2022-08-20T07:47:56.015Z,90.80
2022-08-20T07:50:25.642Z,90.30
2022-08-20T07:52:53.259Z,90.40
2022-08-20T07:55:21.241Z,90.30
2022-08-20T07:57:50.194Z,90.60
2022-08-20T08:00:20.473Z,90.40
2022-08-20T08:02:47.445Z,90.90
2022-08-20T08:05:15.301Z,90.70
2022-08-20T08:07:43.175Z,90.10
2022-08-20T08:10:15.436Z,90.20
2022-08-20T08:12:44.627Z,89.90
2022-08-20T08:15:15.595Z,90.20
2022-08-20T08:17:44.451Z,90.70
2022-08-20T08:20:12.447Z,90.80
2022-08-20T08:22:42.997Z,90.30
2022-08-20T08:25:16.185Z,90.40
2022-08-20T08:27:43.730Z,90.70
2022-08-20T08:30:11.411Z,90.90
2022-08-20T08:32:59.154Z,90.70
2022-08-20T08:35:26.671Z,91.10
2022-08-20T08:37:54.118Z,90.90
2022-08-20T08:40:22.225Z,91.20
2022-08-20T08:42:58.180Z,91.50
2022-08-20T08:45:38.227Z,91.60
2022-08-20T08:48:05.419Z,91.70
2022-08-20T08:50:53.260Z,91.70
2022-08-20T08:53:36.580Z,92.00
2022-08-20T08:56:05.792Z,92.20
2022-08-20T08:58:35.266Z,92.30
2022-08-20T09:01:54.054Z,92.30
2022-08-20T09:04:10.025Z,92.30
2022-08-20T09:06:37.148Z,92.40
2022-08-20T09:09:06.581Z,92.20
2022-08-20T09:11:49.799Z,92.60
2022-08-20T09:14:17.310Z,92.80
2022-08-20T09:16:52.251Z,93.00
2022-08-20T09:19:21.592Z,92.70
2022-08-20T09:21:48.964Z,92.30
2022-08-20T09:24:16.164Z,91.80
2022-08-20T09:26:43.575Z,91.30
2022-08-20T09:29:11.074Z,90.60
2022-08-20T09:31:38.998Z,90.50
2022-08-20T09:34:06.309Z,90.10
2022-08-20T09:36:33.497Z,90.00
2022-08-20T09:39:02.759Z,90.00
2022-08-20T09:41:30.305Z,89.60
2022-08-20T09:43:57.137Z,89.20
2022-08-20T09:46:27.150Z,89.30
2022-08-20T09:48:54.804Z,88.60
2022-08-20T09:51:22.682Z,87.40
2022-08-20T09:53:49.975Z,87.50
2022-08-20T09:56:17.475Z,87.50
2022-08-20T09:58:53.372Z,86.80
2022-08-20T10:01:21.765Z,86.90
2022-08-20T10:03:49.845Z,86.50
2022-08-20T10:06:20.670Z,86.60
2022-08-20T10:08:49.053Z,87.00
2022-08-20T10:11:17.871Z,86.40
2022-08-20T10:13:45.168Z,86.30
2022-08-20T10:16:12.162Z,85.90
2022-08-20T10:18:39.037Z,86.10
2022-08-20T10:21:12.822Z,85.80
2022-08-20T10:23:39.711Z,85.40
2022-08-20T10:26:08.583Z,85.40
2022-08-20T10:28:35.742Z,85.90
2022-08-20T10:31:04.623Z,86.20
2022-08-20T10:33:31.488Z,86.30
2022-08-20T10:36:00.127Z,85.70
2022-08-20T10:38:27.120Z,85.20
2022-08-20T10:40:53.899Z,84.70
2022-08-20T10:43:20.720Z,85.70
2022-08-20T10:45:47.517Z,85.60
2022-08-20T10:48:17.198Z,84.10
2022-08-20T10:50:47.766Z,84.70
2022-08-20T10:53:14.554Z,85.10
2022-08-20T10:55:41.352Z,85.20
2022-08-20T10:58:08.767Z,85.20
2022-08-20T11:00:38.734Z,85.80
2022-08-20T11:03:05.657Z,87.50
2022-08-20T11:05:33.054Z,89.60
2022-08-20T11:08:03.309Z,90.60
2022-08-20T11:10:33.927Z,91.30
2022-08-20T11:13:02.933Z,91.40
2022-08-20T11:15:30.081Z,91.80
2022-08-20T11:17:57.169Z,93.10
2022-08-20T11:20:26.281Z,93.80
2022-08-20T11:22:54.448Z,94.20
2022-08-20T11:25:21.869Z,94.50
2022-08-20T11:27:51.093Z,94.10
2022-08-20T11:30:33.192Z,93.70
2022-08-20T11:33:01.005Z,93.80
2022-08-20T11:35:48.875Z,93.40
2022-08-20T11:38:17.183Z,93.40
2022-08-20T11:40:44.003Z,93.30
2022-08-20T11:43:16.371Z,93.20
2022-08-20T11:45:46.616Z,92.90
2022-08-20T11:48:13.946Z,93.10
2022-08-20T11:50:41.017Z,92.90
2022-08-20T11:53:08.341Z,92.60
2022-08-20T11:55:35.903Z,92.70
2022-08-20T11:58:02.988Z,92.80
2022-08-20T12:00:32.952Z,92.40
2022-08-20T12:03:09.272Z,92.00
2022-08-20T12:05:42.292Z,91.60
2022-08-20T12:08:09.669Z,91.70
2022-08-20T12:10:38.814Z,91.90
2022-08-20T12:13:06.875Z,91.90
2022-08-20T12:15:35.667Z,92.10
2022-08-20T12:18:10.032Z,92.00
2022-08-20T12:20:38.233Z,92.20
2022-08-20T12:23:05.359Z,92.50
2022-08-20T12:25:32.365Z,92.50
2022-08-20T12:27:59.659Z,92.70
2022-08-20T12:30:27.280Z,93.10
2022-08-20T12:32:54.401Z,93.30
2022-08-20T12:35:21.632Z,93.60
2022-08-20T12:37:49.889Z,94.10
2022-08-20T12:40:31.942Z,94.20
2022-08-20T12:43:03.704Z,93.30
2022-08-20T12:45:32.663Z,92.50
2022-08-20T12:48:12.958Z,93.50
2022-08-20T12:50:42.667Z,94.50
2022-08-20T12:53:09.727Z,92.80
2022-08-20T12:55:36.972Z,93.20
2022-08-20T12:58:07.465Z,93.00
2022-08-20T13:00:43.124Z,92.10
2022-08-20T13:03:12.109Z,92.40
2022-08-20T13:05:39.525Z,91.70
2022-08-20T13:08:09.897Z,91.60
2022-08-20T13:10:44.141Z,90.90
2022-08-20T13:13:12.917Z,91.10
2022-08-20T13:15:40.047Z,90.40
2022-08-20T13:18:07.419Z,90.60
2022-08-20T13:20:34.995Z,90.50
2022-08-20T13:23:03.622Z,90.20
2022-08-20T13:25:31.329Z,90.00
2022-08-20T13:28:00.791Z,89.30
2022-08-20T13:30:27.676Z,90.10
2022-08-20T13:32:54.581Z,90.30
2022-08-20T13:35:22.054Z,88.30
2022-08-20T13:37:50.090Z,89.90
2022-08-20T13:40:17.873Z,88.60
2022-08-20T13:42:45.362Z,88.90
2022-08-20T13:45:12.376Z,88.70
2022-08-20T13:47:41.472Z,88.80
2022-08-20T13:50:17.635Z,88.10
2022-08-20T13:52:45.937Z,87.80
2022-08-20T13:55:16.723Z,88.00
2022-08-20T13:57:45.503Z,88.90
2022-08-20T14:00:17.303Z,88.30
2022-08-20T14:02:44.362Z,87.60
2022-08-20T14:05:11.658Z,88.30
2022-08-20T14:07:41.886Z,89.00
2022-08-20T14:10:13.919Z,88.30
2022-08-20T14:12:40.839Z,87.20
2022-08-20T14:15:12.304Z,88.70
2022-08-20T14:17:43.078Z,87.60
2022-08-20T14:20:14.097Z,87.10
2022-08-20T14:22:42.661Z,88.40
2022-08-20T14:25:12.371Z,87.30
2022-08-20T14:27:40.331Z,87.80
2022-08-20T14:30:10.778Z,87.30
2022-08-20T14:32:37.921Z,87.10
2022-08-20T14:35:05.986Z,86.60
2022-08-20T14:37:37.974Z,85.50
2022-08-20T14:40:08.766Z,86.40
2022-08-20T14:42:36.691Z,86.70
2022-08-20T14:45:06.541Z,85.60
2022-08-20T14:47:36.497Z,86.80
2022-08-20T14:50:10.711Z,86.90
2022-08-20T14:52:38.451Z,88.20
2022-08-20T14:55:07.553Z,86.90
2022-08-20T14:57:35.603Z,85.60
2022-08-20T15:00:03.549Z,85.70
2022-08-20T15:02:31.064Z,86.40
2022-08-20T15:04:58.007Z,86.60
2022-08-20T15:07:28.127Z,86.10
2022-08-20T15:09:56.628Z,85.50
2022-08-20T15:12:24.547Z,86.90
2022-08-20T15:14:51.457Z,86.50
2022-08-20T15:17:36.579Z,88.10
2022-08-20T15:23:32.112Z,86.80
2022-08-20T15:26:01.635Z,86.00
2022-08-20T15:32:07.611Z,86.10
2022-08-20T15:34:39.141Z,84.00
2022-08-20T15:37:11.930Z,84.60
2022-08-20T15:39:41.241Z,82.90
2022-08-20T15:42:09.118Z,82.50
2022-08-20T15:44:36.941Z,81.60
2022-08-20T15:47:28.629Z,81.10
2022-08-20T15:50:03.993Z,83.70
2022-08-20T15:52:42.298Z,84.00
2022-08-20T15:55:15.865Z,83.10
2022-08-20T15:58:03.719Z,80.20
2022-08-20T16:00:42.639Z,79.00
2022-08-20T16:03:39.133Z,75.50
2022-08-20T16:06:17.380Z,76.90
2022-08-20T16:09:02.158Z,81.50
2022-08-20T16:11:47.011Z,81.70
2022-08-20T16:14:26.957Z,80.30
2022-08-20T16:17:08.962Z,80.30
2022-08-20T16:20:11.667Z,76.20
2022-08-20T16:22:43.328Z,75.90
2022-08-20T16:25:12.383Z,81.40
2022-08-20T16:27:53.116Z,81.20
2022-08-20T16:30:44.847Z,83.50
2022-08-20T16:33:27.669Z,78.50
2022-08-20T16:35:56.928Z,78.20
2022-08-20T16:38:47.038Z,83.40
2022-08-20T16:41:21.770Z,84.00
2022-08-20T16:43:54.817Z,84.10
2022-08-20T16:46:25.825Z,84.80
2022-08-20T16:48:58.125Z,85.00
2022-08-20T16:51:40.819Z,85.50
2022-08-20T16:54:09.024Z,84.70
2022-08-20T16:56:39.074Z,83.10
2022-08-20T16:59:12.526Z,82.80
2022-08-20T17:02:22.513Z,84.30
2022-08-20T17:04:59.137Z,83.20
2022-08-20T17:07:43.170Z,84.30
2022-08-20T17:10:35.123Z,83.90
2022-08-20T17:13:20.714Z,81.50
2022-08-20T17:16:01.261Z,83.40
2022-08-20T17:18:31.564Z,81.80
2022-08-20T17:21:04.868Z,83.10
2022-08-20T17:23:54.836Z,81.70
2022-08-20T17:26:35.420Z,80.70
2022-08-20T17:29:37.164Z,77.30
2022-08-20T17:32:21.684Z,79.20
2022-08-20T17:34:52.384Z,78.70
2022-08-20T17:37:22.921Z,78.60
2022-08-20T17:40:14.786Z,79.20
2022-08-20T17:42:53.869Z,78.60
2022-08-20T17:45:31.831Z,79.00
2022-08-20T17:48:00.053Z,79.10
2022-08-20T17:50:35.267Z,79.70
2022-08-20T17:53:23.025Z,80.40
2022-08-20T17:55:54.808Z,81.20
2022-08-20T17:58:37.501Z,81.80
2022-08-20T18:01:05.297Z,81.70
2022-08-20T18:03:37.229Z,82.40
2022-08-20T18:06:30.781Z,82.50
2022-08-20T18:09:06.832Z,83.40
2022-08-20T18:11:34.214Z,83.50
2022-08-20T18:14:03.976Z,85.10
2022-08-20T18:16:38.910Z,84.80
2022-08-20T18:19:18.731Z,85.00
2022-08-20T18:21:57.454Z,84.90
2022-08-20T18:24:56.804Z,85.20
2022-08-20T18:27:26.220Z,86.60
2022-08-20T18:29:58.960Z,87.00
2022-08-20T18:32:31.891Z,87.50
2022-08-20T18:35:37.445Z,87.70
2022-08-20T18:38:37.012Z,86.90
2022-08-20T18:41:37.137Z,86.30
2022-08-20T18:44:06.147Z,85.80
2022-08-20T18:46:33.303Z,85.70
2022-08-20T18:49:03.891Z,85.80
2022-08-20T18:51:51.202Z,86.20
2022-08-20T18:54:31.948Z,87.30
2022-08-20T18:57:05.872Z,86.00
2022-08-20T18:59:38.023Z,85.10
2022-08-20T19:02:37.412Z,85.10
2022-08-20T19:05:08.523Z,84.70
2022-08-20T19:07:48.212Z,84.80
2022-08-20T19:10:27.939Z,85.00
2022-08-20T19:13:16.127Z,84.50
2022-08-20T19:15:50.151Z,84.90
2022-08-20T19:18:43.267Z,85.60
2022-08-20T19:21:15.668Z,86.20
2022-08-20T19:23:50.193Z,85.10
2022-08-20T19:26:25.114Z,85.20
2022-08-20T19:28:58.897Z,85.50
2022-08-20T19:31:31.879Z,85.20
2022-08-20T19:34:20.327Z,85.30
2022-08-20T19:37:27.393Z,85.30
2022-08-20T19:39:47.985Z,85.90
2022-08-20T19:42:41.819Z,86.50
2022-08-20T19:45:17.145Z,86.80
2022-08-20T19:47:57.250Z,86.60
2022-08-20T19:50:42.200Z,86.30
2022-08-20T19:53:36.307Z,85.70
2022-08-20T19:56:12.696Z,85.50
2022-08-20T19:58:39.992Z,85.80
2022-08-20T20:01:18.964Z,87.10
2022-08-20T20:04:01.495Z,86.90
2022-08-20T20:06:30.639Z,86.00
2022-08-20T20:09:22.159Z,85.70
2022-08-20T20:11:54.071Z,86.00
2022-08-20T20:14:25.775Z,86.30
2022-08-20T20:16:53.479Z,86.50
2022-08-20T20:19:28.538Z,86.20
2022-08-20T20:22:27.250Z,86.50
2022-08-20T20:25:20.972Z,86.30
2022-08-20T20:27:54.931Z,86.00
2022-08-20T20:30:33.744Z,86.10
2022-08-20T20:33:11.016Z,86.20
2022-08-20T20:35:38.217Z,86.30
2022-08-20T20:38:27.076Z,86.20
2022-08-20T20:40:57.466Z,86.40
2022-08-20T20:43:24.239Z,86.60
2022-08-20T20:46:13.302Z,86.70
2022-08-20T20:48:48.491Z,86.40
2022-08-20T20:51:27.822Z,86.50
2022-08-20T20:53:58.742Z,86.50
2022-08-20T20:56:38.746Z,86.60
2022-08-20T20:59:07.604Z,86.20
2022-08-20T21:01:47.997Z,86.50
2022-08-20T21:04:20.364Z,86.60
2022-08-20T21:06:47.884Z,87.20
2022-08-20T21:09:15.317Z,86.40
2022-08-20T21:11:42.211Z,86.70
2022-08-20T21:14:09.207Z,87.10
2022-08-20T21:16:36.141Z,87.20
2022-08-20T21:19:05.956Z,87.20
2022-08-20T21:21:33.187Z,87.00
2022-08-20T21:24:00.194Z,86.80
2022-08-20T21:26:28.453Z,86.50
2022-08-20T21:29:02.409Z,86.20
2022-08-20T21:31:35.523Z,86.60
2022-08-20T21:34:02.804Z,86.30
2022-08-20T21:36:29.933Z,86.20
2022-08-20T21:38:57.067Z,86.20
2022-08-20T21:41:29.881Z,86.40
2022-08-20T21:43:58.873Z,86.20
2022-08-20T21:46:28.614Z,86.70
2022-08-20T21:48:56.195Z,86.90
2022-08-20T21:51:23.090Z,87.10
2022-08-20T21:53:50.145Z,87.40
2022-08-20T21:56:17.319Z,87.80
2022-08-20T21:58:49.558Z,87.80
2022-08-20T22:01:17.487Z,87.80
2022-08-20T22:03:44.744Z,88.00
2022-08-20T22:06:16.310Z,87.60
2022-08-20T22:08:43.149Z,87.80
2022-08-20T22:11:11.716Z,88.10
2022-08-20T22:13:40.607Z,88.40
2022-08-20T22:16:09.875Z,88.50
2022-08-20T22:18:37.401Z,88.60
2022-08-20T22:21:09.981Z,88.70
2022-08-20T22:23:40.117Z,89.00
2022-08-20T22:26:08.310Z,89.30
2022-08-20T22:28:35.432Z,89.40
2022-08-20T22:31:03.356Z,89.70
2022-08-20T22:33:31.877Z,90.00
2022-08-20T22:35:59.161Z,89.90
2022-08-20T22:38:26.531Z,90.10
2022-08-20T22:40:54.132Z,90.10
2022-08-20T22:43:22.003Z,90.10
2022-08-20T22:45:52.455Z,90.10
2022-08-20T22:48:20.889Z,90.10
2022-08-20T22:50:49.776Z,90.20
2022-08-20T22:53:18.709Z,90.30
2022-08-20T22:55:45.700Z,90.40
2022-08-20T22:58:13.326Z,90.60
2022-08-20T23:00:40.652Z,90.80
2022-08-20T23:03:07.783Z,90.80
2022-08-20T23:05:36.818Z,91.10
2022-08-20T23:08:07.020Z,91.30
2022-08-20T23:10:36.150Z,91.40
2022-08-20T23:13:03.236Z,91.60
2022-08-20T23:15:32.572Z,91.70
2022-08-20T23:18:06.417Z,91.80
2022-08-20T23:20:33.347Z,91.80
2022-08-20T23:23:00.252Z,92.00
2022-08-20T23:25:27.789Z,92.00
2022-08-20T23:27:56.672Z,92.00
2022-08-20T23:30:30.487Z,92.20
2022-08-20T23:32:57.718Z,92.40
2022-08-20T23:35:32.247Z,92.40
2022-08-20T23:38:00.363Z,92.40
2022-08-20T23:40:29.126Z,92.40
2022-08-20T23:42:57.207Z,92.40
2022-08-20T23:45:25.238Z,92.50
2022-08-20T23:47:52.283Z,92.70
2022-08-20T23:50:24.162Z,92.70
2022-08-20T23:52:52.044Z,92.90
2022-08-20T23:55:19.293Z,92.90
2022-08-20T23:57:46.322Z,93.00
